sensor_id;sensor_type;location;lat;lon;timestamp;temperature;humidity
28069;DHT22;15382;47.578;8.086;2023-12-22T00:04:04;8.10;99.90
28069;DHT22;15382;47.578;8.086;2023-12-22T00:14:07;8.10;99.90
28069;DHT22;15382;47.578;8.086;2023-12-22T00:24:07;8.10;99.90
28069;DHT22;15382;47.578;8.086;2023-12-22T00:34:08;8.10;99.90
28069;DHT22;15382;47.578;8.086;2023-12-22T00:44:09;8.10;99.90
28069;DHT22;15382;47.578;8.086;2023-12-22T00:54:09;8.10;99.90
28069;DHT22;15382;47.578;8.086;2023-12-22T01:04:10;8.00;99.90
28069;DHT22;15382;47.578;8.086;2023-12-22T01:14:10;7.90;99.90
28069;DHT22;15382;47.578;8.086;2023-12-22T01:24:13;7.80;99.90
28069;DHT22;15382;47.578;8.086;2023-12-22T01:34:14;7.60;99.90
28069;DHT22;15382;47.578;8.086;2023-12-22T01:44:14;7.50;99.90
28069;DHT22;15382;47.578;8.086;2023-12-22T01:54:15;7.60;99.90
28069;DHT22;15382;47.578;8.086;2023-12-22T02:04:17;7.60;99.90
28069;DHT22;15382;47.578;8.086;2023-12-22T02:14:18;7.50;99.90
28069;DHT22;15382;47.578;8.086;2023-12-22T02:24:18;7.60;99.90
28069;DHT22;15382;47.578;8.086;2023-12-22T02:34:19;7.50;99.90
28069;DHT22;15382;47.578;8.086;2023-12-22T02:44:20;7.50;99.90
28069;DHT22;15382;47.578;8.086;2023-12-22T02:54:21;7.50;99.90
28069;DHT22;15382;47.578;8.086;2023-12-22T03:04:21;7.50;99.90
28069;DHT22;15382;47.578;8.086;2023-12-22T03:14:22;7.50;99.90
28069;DHT22;15382;47.578;8.086;2023-12-22T03:24:23;7.40;99.90
28069;DHT22;15382;47.578;8.086;2023-12-22T03:34:24;7.40;99.90
28069;DHT22;15382;47.578;8.086;2023-12-22T03:44:24;7.50;99.90
28069;DHT22;15382;47.578;8.086;2023-12-22T03:54:25;7.50;99.90
28069;DHT22;15382;47.578;8.086;2023-12-22T04:04:26;7.50;99.90
28069;DHT22;15382;47.578;8.086;2023-12-22T04:14:28;7.40;99.90
28069;DHT22;15382;47.578;8.086;2023-12-22T04:24:29;7.40;99.90
28069;DHT22;15382;47.578;8.086;2023-12-22T04:34:29;7.20;99.90
28069;DHT22;15382;47.578;8.086;2023-12-22T04:44:30;7.20;99.90
28069;DHT22;15382;47.578;8.086;2023-12-22T04:54:30;7.20;99.90
28069;DHT22;15382;47.578;8.086;2023-12-22T05:04:31;7.20;99.90
28069;DHT22;15382;47.578;8.086;2023-12-22T05:14:32;7.30;99.90
28069;DHT22;15382;47.578;8.086;2023-12-22T05:24:32;7.20;99.90
28069;DHT22;15382;47.578;8.086;2023-12-22T05:34:33;7.30;99.90
28069;DHT22;15382;47.578;8.086;2023-12-22T05:44:33;7.20;99.90
28069;DHT22;15382;47.578;8.086;2023-12-22T05:54:35;7.30;99.90
28069;DHT22;15382;47.578;8.086;2023-12-22T06:04:36;7.30;99.90
28069;DHT22;15382;47.578;8.086;2023-12-22T06:14:36;7.20;99.90
28069;DHT22;15382;47.578;8.086;2023-12-22T06:24:37;7.10;99.90
28069;DHT22;15382;47.578;8.086;2023-12-22T06:34:37;7.10;99.90
28069;DHT22;15382;47.578;8.086;2023-12-22T06:44:38;7.10;99.90
28069;DHT22;15382;47.578;8.086;2023-12-22T06:54:41;7.20;99.90
28069;DHT22;15382;47.578;8.086;2023-12-22T07:05:29;7.30;99.90
28069;DHT22;15382;47.578;8.086;2023-12-22T07:15:09;7.30;99.90
28069;DHT22;15382;47.578;8.086;2023-12-22T07:25:11;7.30;99.90
28069;DHT22;15382;47.578;8.086;2023-12-22T07:35:11;7.20;99.90
28069;DHT22;15382;47.578;8.086;2023-12-22T07:45:12;7.20;99.90
28069;DHT22;15382;47.578;8.086;2023-12-22T07:55:15;7.30;99.90
28069;DHT22;15382;47.578;8.086;2023-12-22T08:05:16;7.30;99.90
28069;DHT22;15382;47.578;8.086;2023-12-22T08:15:17;7.30;99.90
28069;DHT22;15382;47.578;8.086;2023-12-22T08:25:17;7.30;99.90
28069;DHT22;15382;47.578;8.086;2023-12-22T08:35:20;7.40;99.90
28069;DHT22;15382;47.578;8.086;2023-12-22T08:45:21;7.50;99.90
28069;DHT22;15382;47.578;8.086;2023-12-22T08:55:22;7.40;99.90
28069;DHT22;15382;47.578;8.086;2023-12-22T09:05:23;7.50;99.90
28069;DHT22;15382;47.578;8.086;2023-12-22T09:15:23;7.50;99.90
28069;DHT22;15382;47.578;8.086;2023-12-22T09:25:24;7.60;99.90
28069;DHT22;15382;47.578;8.086;2023-12-22T09:35:26;7.70;99.90
28069;DHT22;15382;47.578;8.086;2023-12-22T09:45:28;7.80;99.90
28069;DHT22;15382;47.578;8.086;2023-12-22T09:55:31;7.80;99.90
28069;DHT22;15382;47.578;8.086;2023-12-22T10:05:32;7.80;99.90
28069;DHT22;15382;47.578;8.086;2023-12-22T10:15:33;7.90;99.90
28069;DHT22;15382;47.578;8.086;2023-12-22T10:25:34;7.70;99.90
28069;DHT22;15382;47.578;8.086;2023-12-22T10:35:35;7.70;99.90
28069;DHT22;15382;47.578;8.086;2023-12-22T10:45:35;7.70;99.90
28069;DHT22;15382;47.578;8.086;2023-12-22T10:55:36;7.90;99.90
28069;DHT22;15382;47.578;8.086;2023-12-22T11:05:37;7.80;99.90
28069;DHT22;15382;47.578;8.086;2023-12-22T11:15:37;7.70;99.90
28069;DHT22;15382;47.578;8.086;2023-12-22T11:25:39;7.60;99.90
28069;DHT22;15382;47.578;8.086;2023-12-22T11:35:41;7.70;99.90
28069;DHT22;15382;47.578;8.086;2023-12-22T11:45:42;7.80;99.90
28069;DHT22;15382;47.578;8.086;2023-12-22T11:56:05;8.00;99.90
28069;DHT22;15382;47.578;8.086;2023-12-22T12:16:27;8.10;99.90
28069;DHT22;15382;47.578;8.086;2023-12-22T12:26:28;8.10;99.90
28069;DHT22;15382;47.578;8.086;2023-12-22T12:36:29;8.20;99.90
28069;DHT22;15382;47.578;8.086;2023-12-22T12:46:34;8.20;99.90
28069;DHT22;15382;47.578;8.086;2023-12-22T13:06:46;8.50;99.90
28069;DHT22;15382;47.578;8.086;2023-12-22T13:16:47;8.60;99.90
28069;DHT22;15382;47.578;8.086;2023-12-22T13:26:57;8.80;99.90
28069;DHT22;15382;47.578;8.086;2023-12-22T13:36:58;8.80;99.90
28069;DHT22;15382;47.578;8.086;2023-12-22T13:47:02;8.70;99.90
28069;DHT22;15382;47.578;8.086;2023-12-22T13:57:03;8.70;99.90
28069;DHT22;15382;47.578;8.086;2023-12-22T14:07:04;8.80;99.90
28069;DHT22;15382;47.578;8.086;2023-12-22T14:17:05;8.90;99.90
28069;DHT22;15382;47.578;8.086;2023-12-22T14:27:05;9.00;99.90
28069;DHT22;15382;47.578;8.086;2023-12-22T14:37:06;9.10;99.90
28069;DHT22;15382;47.578;8.086;2023-12-22T14:47:07;9.00;99.90
28069;DHT22;15382;47.578;8.086;2023-12-22T14:57:07;9.10;99.90
28069;DHT22;15382;47.578;8.086;2023-12-22T15:07:08;9.20;99.90
28069;DHT22;15382;47.578;8.086;2023-12-22T15:17:09;9.10;99.90
28069;DHT22;15382;47.578;8.086;2023-12-22T15:27:10;8.90;99.90
28069;DHT22;15382;47.578;8.086;2023-12-22T15:37:11;8.60;99.90
28069;DHT22;15382;47.578;8.086;2023-12-22T15:47:12;8.70;99.90
28069;DHT22;15382;47.578;8.086;2023-12-22T15:57:12;8.60;99.90
28069;DHT22;15382;47.578;8.086;2023-12-22T16:07:13;8.60;99.90
28069;DHT22;15382;47.578;8.086;2023-12-22T16:17:14;8.50;99.90
28069;DHT22;15382;47.578;8.086;2023-12-22T16:27:14;8.50;99.90
28069;DHT22;15382;47.578;8.086;2023-12-22T16:37:15;8.40;99.90
28069;DHT22;15382;47.578;8.086;2023-12-22T16:47:16;8.40;99.90
28069;DHT22;15382;47.578;8.086;2023-12-22T16:57:17;8.30;99.90
28069;DHT22;15382;47.578;8.086;2023-12-22T17:07:17;8.40;99.90
28069;DHT22;15382;47.578;8.086;2023-12-22T17:17:18;8.40;99.90
28069;DHT22;15382;47.578;8.086;2023-12-22T17:27:19;8.40;99.90
28069;DHT22;15382;47.578;8.086;2023-12-22T17:37:19;8.40;99.90
28069;DHT22;15382;47.578;8.086;2023-12-22T17:47:20;8.40;99.90
28069;DHT22;15382;47.578;8.086;2023-12-22T17:57:20;8.40;99.90
28069;DHT22;15382;47.578;8.086;2023-12-22T18:07:21;8.50;99.90
28069;DHT22;15382;47.578;8.086;2023-12-22T18:17:22;8.40;99.90
28069;DHT22;15382;47.578;8.086;2023-12-22T18:27:22;8.40;99.90
28069;DHT22;15382;47.578;8.086;2023-12-22T18:37:23;8.40;99.90
28069;DHT22;15382;47.578;8.086;2023-12-22T18:47:24;8.40;99.90
28069;DHT22;15382;47.578;8.086;2023-12-22T18:57:30;8.40;99.90
28069;DHT22;15382;47.578;8.086;2023-12-22T19:07:30;8.40;99.90
28069;DHT22;15382;47.578;8.086;2023-12-22T19:17:31;8.40;99.90
28069;DHT22;15382;47.578;8.086;2023-12-22T19:27:32;8.30;99.90
28069;DHT22;15382;47.578;8.086;2023-12-22T19:37:32;8.30;99.90
28069;DHT22;15382;47.578;8.086;2023-12-22T19:47:34;8.20;99.90
28069;DHT22;15382;47.578;8.086;2023-12-22T19:57:35;8.10;99.90
28069;DHT22;15382;47.578;8.086;2023-12-22T20:07:35;8.20;99.90
28069;DHT22;15382;47.578;8.086;2023-12-22T20:17:36;8.10;99.90
28069;DHT22;15382;47.578;8.086;2023-12-22T20:27:37;8.00;99.90
28069;DHT22;15382;47.578;8.086;2023-12-22T20:37:37;8.00;99.90
28069;DHT22;15382;47.578;8.086;2023-12-22T20:47:38;8.00;99.90
28069;DHT22;15382;47.578;8.086;2023-12-22T20:57:39;8.00;99.90
28069;DHT22;15382;47.578;8.086;2023-12-22T21:07:40;8.10;99.90
28069;DHT22;15382;47.578;8.086;2023-12-22T21:17:40;8.00;99.90
28069;DHT22;15382;47.578;8.086;2023-12-22T21:27:46;8.10;99.90
28069;DHT22;15382;47.578;8.086;2023-12-22T21:37:48;8.00;99.90
28069;DHT22;15382;47.578;8.086;2023-12-22T21:47:49;8.00;99.90
28069;DHT22;15382;47.578;8.086;2023-12-22T21:57:50;8.00;99.90
28069;DHT22;15382;47.578;8.086;2023-12-22T22:07:51;8.00;99.90
28069;DHT22;15382;47.578;8.086;2023-12-22T22:17:51;7.90;99.90
28069;DHT22;15382;47.578;8.086;2023-12-22T22:27:52;7.90;99.90
28069;DHT22;15382;47.578;8.086;2023-12-22T22:37:53;7.80;99.90
28069;DHT22;15382;47.578;8.086;2023-12-22T22:47:54;7.90;99.90
28069;DHT22;15382;47.578;8.086;2023-12-22T22:57:55;7.90;99.90
28069;DHT22;15382;47.578;8.086;2023-12-22T23:07:55;7.90;99.90
28069;DHT22;15382;47.578;8.086;2023-12-22T23:17:56;7.90;99.90
28069;DHT22;15382;47.578;8.086;2023-12-22T23:27:57;7.90;99.90
28069;DHT22;15382;47.578;8.086;2023-12-22T23:37:57;7.80;99.90
28069;DHT22;15382;47.578;8.086;2023-12-22T23:47:58;7.70;99.90
28069;DHT22;15382;47.578;8.086;2023-12-22T23:57:59;7.80;99.90
